createdAt,value
2018-03-25T00:01:03.625Z,4.60
2018-03-25T00:03:31.077Z,4.60
2018-03-25T00:05:58.562Z,4.40
2018-03-25T00:08:26.024Z,4.30
2018-03-25T00:10:53.501Z,4.20
2018-03-25T00:13:21.758Z,4.00
2018-03-25T00:15:49.250Z,3.90
2018-03-25T00:18:16.730Z,3.90
2018-03-25T00:20:44.205Z,3.80
2018-03-25T00:23:11.764Z,3.70
2018-03-25T00:25:39.217Z,3.60
2018-03-25T00:28:06.728Z,3.50
2018-03-25T00:30:34.240Z,3.40
2018-03-25T00:33:01.705Z,3.30
2018-03-25T00:35:29.183Z,3.30
2018-03-25T00:37:57.410Z,3.20
2018-03-25T00:40:24.888Z,3.10
2018-03-25T00:42:52.436Z,3.10
2018-03-25T00:45:20.019Z,3.10
2018-03-25T00:47:47.469Z,3.00
2018-03-25T00:50:14.991Z,3.00
2018-03-25T00:52:42.468Z,2.90
2018-03-25T00:55:09.925Z,2.90
2018-03-25T00:57:37.404Z,2.80
2018-03-25T01:00:05.777Z,2.70
2018-03-25T01:02:33.257Z,2.70
2018-03-25T01:05:00.716Z,2.70
2018-03-25T01:07:28.237Z,2.60
2018-03-25T01:09:55.772Z,2.60
2018-03-25T01:12:23.337Z,2.60
2018-03-25T01:14:51.558Z,2.60
2018-03-25T01:17:19.080Z,2.50
2018-03-25T01:19:46.620Z,2.50
2018-03-25T01:22:14.189Z,2.50
2018-03-25T01:24:41.648Z,2.50
2018-03-25T01:27:09.129Z,2.50
2018-03-25T01:29:37.346Z,2.40
2018-03-25T01:32:05.221Z,2.40
2018-03-25T01:34:32.706Z,2.30
2018-03-25T01:37:00.156Z,2.30
2018-03-25T01:39:27.653Z,2.30
2018-03-25T01:41:55.165Z,2.30
2018-03-25T01:44:22.626Z,2.20
2018-03-25T01:46:50.110Z,2.20
2018-03-25T01:49:18.449Z,2.20
2018-03-25T01:51:46.708Z,2.20
2018-03-25T01:54:14.197Z,2.20
2018-03-25T01:56:42.422Z,2.10
2018-03-25T01:59:09.905Z,2.10
2018-03-25T02:01:37.477Z,2.10
2018-03-25T02:04:04.957Z,2.10
2018-03-25T02:06:33.173Z,2.00
2018-03-25T02:09:00.661Z,2.00
2018-03-25T02:11:28.209Z,2.00
2018-03-25T02:13:56.460Z,1.90
2018-03-25T02:16:23.922Z,1.90
2018-03-25T02:18:51.404Z,1.90
2018-03-25T02:21:18.890Z,1.90
2018-03-25T02:23:47.268Z,1.90
2018-03-25T02:26:15.714Z,1.90
2018-03-25T02:28:43.873Z,1.90
2018-03-25T02:31:11.330Z,1.90
2018-03-25T02:33:38.821Z,1.90
2018-03-25T02:36:07.036Z,1.80
2018-03-25T02:38:34.507Z,1.80
2018-03-25T02:41:01.980Z,1.80
2018-03-25T02:43:29.477Z,1.80
2018-03-25T02:45:57.689Z,1.70
2018-03-25T02:48:25.151Z,1.70
2018-03-25T02:50:52.626Z,1.70
2018-03-25T02:53:20.190Z,1.70
2018-03-25T02:55:47.666Z,1.70
2018-03-25T02:58:16.529Z,1.70
2018-03-25T03:00:44.099Z,1.60
2018-03-25T03:03:11.543Z,1.70
2018-03-25T03:05:39.002Z,1.60
2018-03-25T03:08:06.543Z,1.60
2018-03-25T03:10:34.005Z,1.60
2018-03-25T03:13:01.565Z,1.60
2018-03-25T03:15:29.119Z,1.60
2018-03-25T03:17:56.578Z,1.60
2018-03-25T03:20:24.857Z,1.60
2018-03-25T03:22:52.412Z,1.60
2018-03-25T03:25:19.875Z,1.60
2018-03-25T03:27:47.430Z,1.60
2018-03-25T03:30:14.903Z,1.60
2018-03-25T03:32:43.167Z,1.50
2018-03-25T03:35:10.641Z,1.50
2018-03-25T03:37:38.868Z,1.60
2018-03-25T03:40:07.083Z,1.50
2018-03-25T03:42:35.547Z,1.50
2018-03-25T03:45:03.781Z,1.50
2018-03-25T03:47:31.239Z,1.50
2018-03-25T03:49:58.739Z,1.50
2018-03-25T03:52:27.010Z,1.50
2018-03-25T03:54:54.476Z,1.40
2018-03-25T03:57:22.737Z,1.40
2018-03-25T03:59:50.297Z,1.40
2018-03-25T04:02:17.860Z,1.40
2018-03-25T04:04:46.110Z,1.50
2018-03-25T04:07:13.579Z,1.40
2018-03-25T04:09:41.040Z,1.50
2018-03-25T04:12:08.598Z,1.50
2018-03-25T04:14:36.064Z,1.40
2018-03-25T04:17:04.292Z,1.40
2018-03-25T04:19:31.772Z,1.40
2018-03-25T04:21:59.243Z,1.40
2018-03-25T04:24:27.471Z,1.40
2018-03-25T04:26:55.038Z,1.40
2018-03-25T04:29:22.521Z,1.50
2018-03-25T04:31:49.982Z,1.40
2018-03-25T04:34:17.546Z,1.40
2018-03-25T04:36:45.786Z,1.50
2018-03-25T04:39:13.255Z,1.40
2018-03-25T04:41:40.727Z,1.40
2018-03-25T04:44:08.182Z,1.40
2018-03-25T04:46:36.451Z,1.40
2018-03-25T04:49:03.929Z,1.40
2018-03-25T04:51:32.195Z,1.40
2018-03-25T04:54:00.430Z,1.40
2018-03-25T04:56:28.016Z,1.40
2018-03-25T04:58:55.566Z,1.40
2018-03-25T05:01:23.342Z,1.40
2018-03-25T05:03:50.893Z,1.40
2018-03-25T05:06:18.357Z,1.30
2018-03-25T05:08:46.603Z,1.30
2018-03-25T05:11:14.220Z,1.30
2018-03-25T05:13:41.679Z,1.30
2018-03-25T05:16:09.131Z,1.30
2018-03-25T05:18:36.611Z,1.30
2018-03-25T05:21:04.106Z,1.30
2018-03-25T05:23:31.591Z,1.30
2018-03-25T05:25:59.839Z,1.30
2018-03-25T05:28:27.298Z,1.30
2018-03-25T05:30:55.524Z,1.40
2018-03-25T05:33:23.006Z,1.40
2018-03-25T05:35:50.483Z,1.40
2018-03-25T05:38:17.938Z,1.40
2018-03-25T05:40:45.432Z,1.40
2018-03-25T05:43:12.947Z,1.40
2018-03-25T05:45:40.437Z,1.40
2018-03-25T05:48:07.908Z,1.50
2018-03-25T05:50:35.377Z,1.50
2018-03-25T05:53:02.850Z,1.50
2018-03-25T05:55:30.335Z,1.50
2018-03-25T05:57:58.573Z,1.60
2018-03-25T06:00:26.036Z,1.60
2018-03-25T06:02:53.515Z,1.60
2018-03-25T06:05:21.068Z,1.70
2018-03-25T06:07:48.635Z,1.70
2018-03-25T06:10:16.098Z,1.80
2018-03-25T06:12:44.359Z,1.80
2018-03-25T06:15:11.817Z,1.80
2018-03-25T06:17:39.374Z,1.90
2018-03-25T06:20:06.943Z,1.90
2018-03-25T06:22:35.215Z,1.90
2018-03-25T06:25:02.879Z,1.90
2018-03-25T06:27:30.334Z,2.00
2018-03-25T06:29:58.599Z,2.10
2018-03-25T06:32:26.258Z,2.00
2018-03-25T06:34:53.773Z,2.10
2018-03-25T06:37:21.273Z,2.20
2018-03-25T06:39:48.744Z,2.20
2018-03-25T06:42:16.967Z,2.30
2018-03-25T06:44:44.430Z,2.30
2018-03-25T06:47:11.916Z,2.40
2018-03-25T06:49:39.466Z,2.50
2018-03-25T06:52:06.958Z,2.70
2018-03-25T06:54:34.581Z,2.80
2018-03-25T06:57:02.048Z,2.90
2018-03-25T06:59:29.503Z,3.00
2018-03-25T07:01:57.077Z,3.10
2018-03-25T07:04:24.526Z,3.30
2018-03-25T07:06:52.756Z,3.50
2018-03-25T07:09:20.344Z,3.50
2018-03-25T07:11:47.902Z,3.60
2018-03-25T07:14:15.435Z,3.80
2018-03-25T07:16:43.658Z,4.00
2018-03-25T07:19:11.904Z,4.10
2018-03-25T07:21:39.368Z,4.10
2018-03-25T07:24:07.639Z,4.40
2018-03-25T07:26:35.186Z,4.40
2018-03-25T07:29:02.651Z,4.50
2018-03-25T07:31:30.127Z,4.70
2018-03-25T07:33:58.352Z,5.00
2018-03-25T07:36:25.822Z,4.90
2018-03-25T07:38:53.396Z,5.10
2018-03-25T07:41:20.952Z,5.30
2018-03-25T07:43:48.505Z,5.40
2018-03-25T07:46:15.986Z,5.60
2018-03-25T07:48:44.216Z,5.80
2018-03-25T07:51:11.670Z,5.70
2018-03-25T07:53:39.253Z,5.90
2018-03-25T07:56:06.726Z,6.00
2018-03-25T07:58:34.953Z,6.20
2018-03-25T08:01:02.447Z,6.20
2018-03-25T08:03:29.905Z,6.30
2018-03-25T08:05:58.136Z,6.40
2018-03-25T08:08:25.617Z,6.40
2018-03-25T08:10:53.084Z,6.50
2018-03-25T08:13:20.636Z,6.50
2018-03-25T08:15:48.099Z,6.50
2018-03-25T08:18:15.561Z,6.60
2018-03-25T08:20:43.110Z,6.60
2018-03-25T08:23:10.582Z,6.70
2018-03-25T08:25:38.846Z,6.80
2018-03-25T08:28:06.512Z,6.80
2018-03-25T08:30:33.996Z,6.90
2018-03-25T08:33:01.518Z,7.00
2018-03-25T08:35:28.980Z,7.00
2018-03-25T08:37:57.252Z,7.10
2018-03-25T08:40:24.810Z,7.10
2018-03-25T08:42:52.353Z,7.10
2018-03-25T08:45:19.819Z,7.20
2018-03-25T08:47:48.100Z,7.30
2018-03-25T08:50:16.334Z,7.30
2018-03-25T08:52:43.827Z,7.30
2018-03-25T08:55:11.312Z,7.30
2018-03-25T08:57:38.838Z,7.40
2018-03-25T09:00:06.330Z,7.40
2018-03-25T09:02:33.793Z,7.40
2018-03-25T09:05:01.299Z,7.40
2018-03-25T09:07:28.782Z,7.40
2018-03-25T09:09:57.022Z,7.60
2018-03-25T09:12:24.514Z,7.60
2018-03-25T09:14:52.763Z,7.80
2018-03-25T09:17:21.010Z,7.90
2018-03-25T09:19:48.485Z,7.90
2018-03-25T09:22:16.038Z,8.00
2018-03-25T09:24:43.501Z,8.00
2018-03-25T09:27:11.001Z,8.10
2018-03-25T09:29:38.467Z,8.10
2018-03-25T09:32:05.933Z,8.10
2018-03-25T09:34:33.441Z,8.20
2018-03-25T09:37:00.982Z,8.20
2018-03-25T09:39:28.539Z,8.30
2018-03-25T09:41:56.037Z,8.40
2018-03-25T09:44:23.498Z,8.40
2018-03-25T09:46:50.998Z,8.50
2018-03-25T09:49:18.465Z,8.60
2018-03-25T09:51:45.935Z,8.60
2018-03-25T09:54:14.165Z,8.80
2018-03-25T09:56:41.859Z,8.70
2018-03-25T09:59:09.426Z,8.80
2018-03-25T10:04:41.462Z,9.00
2018-03-25T10:07:08.862Z,9.10
2018-03-25T10:09:36.319Z,9.20
2018-03-25T10:12:04.577Z,9.40
2018-03-25T10:14:32.034Z,9.40
2018-03-25T10:16:59.494Z,9.40
2018-03-25T10:19:26.967Z,9.40
2018-03-25T10:21:55.192Z,9.30
2018-03-25T10:24:22.666Z,9.30
2018-03-25T10:26:50.240Z,9.30
2018-03-25T10:29:17.707Z,9.20
2018-03-25T10:31:45.926Z,9.10
2018-03-25T10:34:13.408Z,9.10
2018-03-25T10:36:40.891Z,9.10
2018-03-25T10:39:09.116Z,9.10
2018-03-25T10:41:36.606Z,9.10
2018-03-25T10:44:04.161Z,9.10
2018-03-25T10:46:31.621Z,9.10
2018-03-25T10:49:00.001Z,9.10
2018-03-25T10:51:27.630Z,9.10
2018-03-25T10:53:55.119Z,9.10
2018-03-25T10:56:22.667Z,9.10
2018-03-25T10:58:50.127Z,9.20
2018-03-25T11:01:17.589Z,9.20
2018-03-25T11:03:45.049Z,9.30
2018-03-25T11:06:12.510Z,9.30
2018-03-25T11:08:40.753Z,9.40
2018-03-25T11:11:08.340Z,9.40
2018-03-25T11:13:35.806Z,9.50
2018-03-25T11:16:04.036Z,9.70
2018-03-25T11:18:31.502Z,9.70
2018-03-25T11:20:58.992Z,9.80
2018-03-25T11:23:27.222Z,10.10
2018-03-25T11:25:54.694Z,10.10
2018-03-25T11:28:22.174Z,10.20
2018-03-25T11:30:50.408Z,10.50
2018-03-25T11:33:17.988Z,10.50
2018-03-25T11:35:45.454Z,10.60
2018-03-25T11:38:13.714Z,10.90
2018-03-25T11:40:41.193Z,10.90
2018-03-25T11:43:09.439Z,11.00
2018-03-25T11:45:36.909Z,10.90
2018-03-25T11:48:05.975Z,11.10
2018-03-25T11:50:33.449Z,11.00
2018-03-25T11:53:01.735Z,11.20
2018-03-25T11:55:29.962Z,11.20
2018-03-25T11:57:57.422Z,11.20
2018-03-25T12:00:24.898Z,11.30
2018-03-25T12:02:52.378Z,11.40
2018-03-25T12:05:19.839Z,11.40
2018-03-25T12:07:48.100Z,11.60
2018-03-25T12:10:15.578Z,11.50
2018-03-25T12:12:43.805Z,11.70
2018-03-25T12:15:11.277Z,11.70
2018-03-25T12:17:38.841Z,11.70
2018-03-25T12:20:07.062Z,11.80
2018-03-25T12:22:34.532Z,11.80
2018-03-25T12:25:02.012Z,11.90
2018-03-25T12:27:29.526Z,12.00
2018-03-25T12:29:57.043Z,12.10
2018-03-25T12:32:25.290Z,12.30
2018-03-25T12:34:52.778Z,12.30
2018-03-25T12:37:20.248Z,12.30
2018-03-25T12:39:48.708Z,12.40
2018-03-25T12:42:16.172Z,12.40
2018-03-25T12:44:43.679Z,12.50
2018-03-25T12:47:11.890Z,12.60
2018-03-25T12:49:40.311Z,12.60
2018-03-25T12:52:07.810Z,12.60
2018-03-25T12:54:35.399Z,12.70
2018-03-25T12:57:02.858Z,12.90
2018-03-25T12:59:30.399Z,13.00
2018-03-25T13:01:58.766Z,13.30
2018-03-25T13:04:26.222Z,13.30
2018-03-25T13:06:53.682Z,13.50
2018-03-25T13:09:21.969Z,13.60
2018-03-25T13:11:50.233Z,13.60
2018-03-25T13:14:18.628Z,13.60
2018-03-25T13:16:47.566Z,13.60
2018-03-25T13:19:15.033Z,13.60
2018-03-25T13:21:42.485Z,13.60
2018-03-25T13:24:09.967Z,13.60
2018-03-25T13:26:37.422Z,13.50
2018-03-25T13:29:05.652Z,13.40
2018-03-25T13:31:33.130Z,13.40
2018-03-25T13:34:00.587Z,13.40
2018-03-25T13:36:28.159Z,13.20
2018-03-25T13:38:55.630Z,13.10
2018-03-25T13:41:23.141Z,13.00
2018-03-25T13:43:51.381Z,12.90
2018-03-25T13:46:19.615Z,12.90
2018-03-25T13:48:47.083Z,12.90
2018-03-25T13:51:14.638Z,12.90
2018-03-25T13:53:42.245Z,12.80
2018-03-25T13:56:09.699Z,12.80
2018-03-25T13:58:37.160Z,12.80
2018-03-25T14:01:04.625Z,12.90
2018-03-25T14:03:32.848Z,13.30
2018-03-25T14:06:00.313Z,13.30
2018-03-25T14:08:27.932Z,13.50
2018-03-25T14:10:55.386Z,13.80
2018-03-25T14:13:22.847Z,14.20
2018-03-25T14:15:50.338Z,14.60
2018-03-25T14:18:17.822Z,14.90
2018-03-25T14:20:46.042Z,15.00
2018-03-25T14:23:13.519Z,14.90
2018-03-25T14:25:40.982Z,15.00
2018-03-25T14:28:08.435Z,15.00
2018-03-25T14:30:36.047Z,14.80
2018-03-25T14:33:03.506Z,14.80
2018-03-25T14:35:30.962Z,16.10
2018-03-25T14:37:58.431Z,18.20
2018-03-25T14:40:25.895Z,19.20
2018-03-25T14:42:53.351Z,19.20
2018-03-25T14:45:21.599Z,17.90
2018-03-25T14:47:49.067Z,17.90
2018-03-25T14:50:16.523Z,17.30
2018-03-25T14:52:44.759Z,16.80
2018-03-25T14:55:12.992Z,18.60
2018-03-25T14:57:40.450Z,18.60
2018-03-25T15:00:07.919Z,21.30
2018-03-25T15:02:35.384Z,24.10
2018-03-25T15:05:03.611Z,28.60
2018-03-25T15:07:31.095Z,28.50
2018-03-25T15:09:58.552Z,29.90
2018-03-25T15:12:26.069Z,31.10
2018-03-25T15:14:54.294Z,33.40
2018-03-25T15:17:21.754Z,33.30
2018-03-25T15:19:49.992Z,34.10
2018-03-25T15:22:18.255Z,33.80
2018-03-25T15:24:45.705Z,33.80
2018-03-25T15:27:13.162Z,32.90
2018-03-25T15:29:40.641Z,30.90
2018-03-25T15:32:08.112Z,28.70
2018-03-25T15:34:35.633Z,27.40
2018-03-25T15:37:03.145Z,26.10
2018-03-25T15:39:31.386Z,24.20
2018-03-25T15:41:58.859Z,24.20
2018-03-25T15:44:26.325Z,24.70
2018-03-25T15:46:54.587Z,27.60
2018-03-25T15:49:22.042Z,27.60
2018-03-25T15:51:49.516Z,29.10
2018-03-25T15:54:17.733Z,31.20
2018-03-25T15:56:45.190Z,31.20
2018-03-25T15:59:12.674Z,31.40
2018-03-25T16:01:40.184Z,31.30
2018-03-25T16:04:07.644Z,31.10
2018-03-25T16:06:35.122Z,30.80
2018-03-25T16:09:02.588Z,30.50
2018-03-25T16:11:30.060Z,30.00
2018-03-25T16:13:57.532Z,29.50
2018-03-25T16:16:25.844Z,28.50
2018-03-25T16:18:53.299Z,28.40
2018-03-25T16:21:20.793Z,27.80
2018-03-25T16:23:48.250Z,27.10
2018-03-25T16:26:16.479Z,24.60
2018-03-25T16:28:43.996Z,24.50
2018-03-25T16:31:11.459Z,22.90
2018-03-25T16:33:39.004Z,21.30
2018-03-25T16:36:06.479Z,20.00
2018-03-25T16:38:34.712Z,17.80
2018-03-25T16:41:02.176Z,17.70
2018-03-25T16:43:29.643Z,17.00
2018-03-25T16:45:57.195Z,16.30
2018-03-25T16:48:24.666Z,15.70
2018-03-25T16:50:52.264Z,15.30
2018-03-25T16:53:19.718Z,14.80
2018-03-25T16:55:47.176Z,14.40
2018-03-25T16:58:14.792Z,14.00
2018-03-25T17:00:42.242Z,13.70
2018-03-25T17:03:09.694Z,13.40
2018-03-25T17:05:37.176Z,13.10
2018-03-25T17:08:05.399Z,12.60
2018-03-25T17:10:32.849Z,12.50
2018-03-25T17:13:00.332Z,12.30
2018-03-25T17:15:27.789Z,12.00
2018-03-25T17:17:55.255Z,11.80
2018-03-25T17:20:22.728Z,11.50
2018-03-25T17:22:50.957Z,11.10
2018-03-25T17:25:18.414Z,11.00
2018-03-25T17:27:45.892Z,10.90
2018-03-25T17:30:13.356Z,10.60
2018-03-25T17:32:40.812Z,10.40
2018-03-25T17:35:08.274Z,10.20
2018-03-25T17:37:36.827Z,9.80
2018-03-25T17:40:04.281Z,9.80
2018-03-25T17:42:31.755Z,9.60
2018-03-25T17:44:59.214Z,9.50
2018-03-25T17:47:26.668Z,9.30
2018-03-25T17:49:54.151Z,9.20
2018-03-25T17:52:21.615Z,9.00
2018-03-25T17:54:49.068Z,8.90
2018-03-25T17:57:16.550Z,8.80
2018-03-25T17:59:44.008Z,8.70
2018-03-25T18:02:11.471Z,8.60
2018-03-25T18:04:39.161Z,8.60
2018-03-25T18:07:07.509Z,8.40
2018-03-25T18:09:34.952Z,8.40
2018-03-25T18:12:02.416Z,8.40
2018-03-25T18:14:29.879Z,8.30
2018-03-25T18:16:58.103Z,8.10
2018-03-25T18:19:26.339Z,8.00
2018-03-25T18:21:53.789Z,8.00
2018-03-25T18:24:21.315Z,7.90
2018-03-25T18:26:48.735Z,7.90
2018-03-25T18:29:16.233Z,7.80
2018-03-25T18:31:43.689Z,7.80
2018-03-25T18:34:11.202Z,7.70
2018-03-25T18:36:38.651Z,7.60
2018-03-25T18:39:06.115Z,7.50
2018-03-25T18:41:34.363Z,7.40
2018-03-25T18:44:01.810Z,7.30
2018-03-25T18:46:29.262Z,7.30
2018-03-25T18:48:56.798Z,7.20
2018-03-25T18:51:24.286Z,7.10
2018-03-25T18:53:51.751Z,7.00
2018-03-25T18:56:19.475Z,7.00
2018-03-25T18:58:47.187Z,6.90
2018-03-25T19:01:14.858Z,6.90
2018-03-25T19:03:42.560Z,6.80
2018-03-25T19:06:10.211Z,6.80
2018-03-25T19:08:37.918Z,6.70
2018-03-25T19:11:06.179Z,6.60
2018-03-25T19:13:33.634Z,6.60
2018-03-25T19:16:01.107Z,6.50
2018-03-25T19:18:28.827Z,6.40
2018-03-25T19:20:56.292Z,6.40
2018-03-25T19:23:23.766Z,6.30
2018-03-25T19:25:51.242Z,6.30
2018-03-25T19:28:18.699Z,6.20
2018-03-25T19:30:46.928Z,6.10
2018-03-25T19:33:14.393Z,6.10
2018-03-25T19:35:41.851Z,6.10
2018-03-25T19:38:09.332Z,6.00
2018-03-25T19:40:36.876Z,5.90
2018-03-25T19:43:04.277Z,5.90
2018-03-25T19:45:31.727Z,5.80
2018-03-25T19:48:00.170Z,5.80
2018-03-25T19:50:27.655Z,5.70
2018-03-25T19:52:55.879Z,5.60
2018-03-25T19:55:23.346Z,5.60
2018-03-25T19:57:50.806Z,5.60
2018-03-25T20:00:18.303Z,5.60
2018-03-25T20:02:45.771Z,5.50
2018-03-25T20:05:13.223Z,5.50
2018-03-25T20:07:40.679Z,5.40
2018-03-25T20:10:08.147Z,5.40
2018-03-25T20:12:35.599Z,5.40
2018-03-25T20:15:03.057Z,5.30
2018-03-25T20:17:30.526Z,5.30
2018-03-25T20:19:57.979Z,5.20
2018-03-25T20:22:25.433Z,5.20
2018-03-25T20:24:52.912Z,5.20
2018-03-25T20:27:20.363Z,5.10
2018-03-25T20:29:47.831Z,5.10
2018-03-25T20:32:15.312Z,5.10
2018-03-25T20:34:43.021Z,5.00
2018-03-25T20:37:10.475Z,5.00
2018-03-25T20:39:37.954Z,5.00
2018-03-25T20:42:05.409Z,4.90
2018-03-25T20:44:32.864Z,4.90
2018-03-25T20:47:00.335Z,4.90
2018-03-25T20:49:27.800Z,4.80
2018-03-25T20:51:55.273Z,4.80
2018-03-25T20:54:22.899Z,4.70
2018-03-25T20:56:50.368Z,4.70
2018-03-25T20:59:17.833Z,4.70
2018-03-25T21:01:45.305Z,4.70
2018-03-25T21:04:13.539Z,4.60
2018-03-25T21:06:41.002Z,4.60
2018-03-25T21:09:08.485Z,4.60
2018-03-25T21:11:36.714Z,4.50
2018-03-25T21:14:04.171Z,4.50
2018-03-25T21:16:31.640Z,4.50
2018-03-25T21:18:59.104Z,4.50
2018-03-25T21:21:28.878Z,4.40
2018-03-25T21:23:56.499Z,4.40
2018-03-25T21:26:24.730Z,4.40
2018-03-25T21:28:52.340Z,4.30
2018-03-25T21:31:19.863Z,4.40
2018-03-25T21:33:47.348Z,4.40
2018-03-25T21:36:15.592Z,4.50
2018-03-25T21:38:43.066Z,4.40
2018-03-25T21:41:11.295Z,4.50
2018-03-25T21:43:38.750Z,4.50
2018-03-25T21:46:06.446Z,4.60
2018-03-25T21:48:33.920Z,4.60
2018-03-25T21:51:02.185Z,4.60
2018-03-25T21:53:29.659Z,4.60
2018-03-25T21:55:57.124Z,4.60
2018-03-25T21:58:24.580Z,4.60
2018-03-25T22:00:52.092Z,4.70
2018-03-25T22:03:19.555Z,4.70
2018-03-25T22:05:47.099Z,4.70
2018-03-25T22:08:14.580Z,4.70
2018-03-25T22:10:42.064Z,4.70
2018-03-25T22:13:09.575Z,4.70
2018-03-25T22:15:37.241Z,4.70
2018-03-25T22:18:04.699Z,4.60
2018-03-25T22:20:32.257Z,4.60
2018-03-25T22:22:59.723Z,4.60
2018-03-25T22:25:27.943Z,4.50
2018-03-25T22:27:55.398Z,4.50
2018-03-25T22:30:22.880Z,4.40
2018-03-25T22:32:50.455Z,4.40
2018-03-25T22:35:18.697Z,4.30
2018-03-25T22:37:46.166Z,4.30
2018-03-25T22:40:13.628Z,4.20
2018-03-25T22:42:41.095Z,4.20
2018-03-25T22:45:08.572Z,4.10
2018-03-25T22:47:36.794Z,4.10
2018-03-25T22:50:04.251Z,4.00
2018-03-25T22:52:31.727Z,4.00
2018-03-25T22:54:59.183Z,4.00
2018-03-25T22:57:26.637Z,3.90
2018-03-25T22:59:54.108Z,3.90
2018-03-25T23:02:21.565Z,3.90
2018-03-25T23:04:49.015Z,3.90
2018-03-25T23:07:16.513Z,3.80
2018-03-25T23:09:43.968Z,3.80
2018-03-25T23:12:11.440Z,3.80
2018-03-25T23:14:38.899Z,3.80
2018-03-25T23:17:06.358Z,3.80
2018-03-25T23:19:33.821Z,3.80
2018-03-25T23:22:01.299Z,3.70
2018-03-25T23:24:28.756Z,3.60
2018-03-25T23:26:56.215Z,3.60
2018-03-25T23:29:23.680Z,3.60
2018-03-25T23:31:51.147Z,3.50
2018-03-25T23:34:18.599Z,3.50
2018-03-25T23:36:46.842Z,3.50
2018-03-25T23:39:14.308Z,3.40
2018-03-25T23:41:41.783Z,3.40
2018-03-25T23:44:09.391Z,3.40
2018-03-25T23:46:36.851Z,3.40
2018-03-25T23:49:04.307Z,3.40
2018-03-25T23:51:31.784Z,3.40
2018-03-25T23:53:59.242Z,3.30
2018-03-25T23:56:26.705Z,3.30
2018-03-25T23:58:54.174Z,3.20
